Time;durP1;ratioP1;P1;durP2;ratioP2;P2;SDS_P1;SDS_P2;PMS_P1;PMS_P2;Temp;Humidity;BMP_temperature;BMP_pressure;BME280_temperature;BME280_humidity;BME280_pressure;Samples;Min_cycle;Max_cycle;Signal;HPM_P1;HPM_P2
2023/11/07 00:02:09;;;;;;;;;4.00;4.00;;;;;;;;5080572;28;45227;-80
2023/11/07 00:04:34;;;;;;;;;5.67;4.33;;;;;;;;5080592;28;45170;-81
2023/11/07 00:07:00;;;;;;;;;4.00;4.00;;;;;;;;5080361;28;45357;-81
2023/11/07 00:09:25;;;;;;;;;4.67;4.67;;;;;;;;5080943;28;45449;-81
2023/11/07 00:11:50;;;;;;;;;4.33;4.33;;;;;;;;5080842;28;45255;-81
2023/11/07 00:14:21;;;;;;;;;4.00;4.00;;;;;;;;5080189;28;45223;-81
2023/11/07 00:16:46;;;;;;;;;3.67;3.67;;;;;;;;5080179;28;46029;-81
2023/11/07 00:19:11;;;;;;;;;5.00;4.00;;;;;;;;5080203;28;45242;-81
2023/11/07 00:21:36;;;;;;;;;4.00;4.00;;;;;;;;5080432;28;45602;-81
2023/11/07 00:24:02;;;;;;;;;3.33;3.33;;;;;;;;5080816;28;45429;-82
2023/11/07 00:26:27;;;;;;;;;6.33;5.00;;;;;;;;5080893;28;47327;-81
2023/11/07 00:28:52;;;;;;;;;5.67;4.00;;;;;;;;5085695;27;45384;-81
2023/11/07 00:31:17;;;;;;;;;5.33;5.33;;;;;;;;5101453;27;45279;-81
2023/11/07 00:33:43;;;;;;;;;8.33;6.67;;;;;;;;5100753;27;45176;-81
2023/11/07 00:36:10;;;;;;;;;5.00;5.00;;;;;;;;5100757;27;45293;-81
2023/11/07 00:38:36;;;;;;;;;3.00;3.00;;;;;;;;5100819;27;45288;-81
2023/11/07 00:41:01;;;;;;;;;4.00;4.00;;;;;;;;5101189;27;45297;-81
2023/11/07 00:43:26;;;;;;;;;5.67;5.00;;;;;;;;5106061;27;45551;-81
2023/11/07 00:45:52;;;;;;;;;3.33;3.00;;;;;;;;5100414;27;45328;-82
2023/11/07 00:48:17;;;;;;;;;6.00;6.00;;;;;;;;5102286;27;45392;-82
2023/11/07 00:50:43;;;;;;;;;4.00;4.00;;;;;;;;5101638;27;45393;-82
2023/11/07 00:53:08;;;;;;;;;3.67;3.67;;;;;;;;5100187;27;45346;-81
2023/11/07 00:55:33;;;;;;;;;4.67;4.67;;;;;;;;5100208;27;45469;-81
2023/11/07 00:57:59;;;;;;;;;4.67;4.00;;;;;;;;5106130;27;45503;-82
2023/11/07 01:00:24;;;;;;;;;6.00;5.00;;;;;;;;5105359;27;45806;-81
2023/11/07 01:02:49;;;;;;;;;4.33;4.33;;;;;;;;5105341;27;45243;-81
2023/11/07 01:05:14;;;;;;;;;3.00;3.00;;;;;;;;5100118;27;45317;-81
2023/11/07 01:07:40;;;;;;;;;4.00;2.67;;;;;;;;5099882;27;45338;-82
2023/11/07 01:10:06;;;;;;;;;4.67;4.00;;;;;;;;5104150;27;45473;-83
2023/11/07 01:12:31;;;;;;;;;5.00;4.00;;;;;;;;5103622;27;45419;-82
2023/11/07 01:14:56;;;;;;;;;6.67;5.67;;;;;;;;5103087;27;46462;-82
2023/11/07 01:17:23;;;;;;;;;5.00;5.00;;;;;;;;5103469;27;45447;-82
2023/11/07 01:19:48;;;;;;;;;5.00;4.00;;;;;;;;5103659;27;45347;-82
2023/11/07 01:22:14;;;;;;;;;4.00;4.00;;;;;;;;5103227;27;45493;-82
2023/11/07 01:24:39;;;;;;;;;5.33;4.00;;;;;;;;5103366;27;45511;-81
2023/11/07 01:27:04;;;;;;;;;5.33;5.00;;;;;;;;5103442;27;45366;-81
2023/11/07 01:29:29;;;;;;;;;4.67;4.67;;;;;;;;5092915;27;45135;-81
2023/11/07 01:31:55;;;;;;;;;5.33;5.33;;;;;;;;5082763;28;45531;-81
2023/11/07 01:34:20;;;;;;;;;6.33;5.67;;;;;;;;5082792;28;46045;-81
2023/11/07 01:36:45;;;;;;;;;5.00;5.00;;;;;;;;5082265;28;45325;-81
2023/11/07 01:39:10;;;;;;;;;4.33;4.33;;;;;;;;5082925;28;45360;-81
2023/11/07 01:41:36;;;;;;;;;7.33;4.00;;;;;;;;5082678;28;45413;-81
2023/11/07 01:44:01;;;;;;;;;4.00;4.00;;;;;;;;5082512;28;45264;-82
2023/11/07 01:46:26;;;;;;;;;4.33;4.33;;;;;;;;5082533;28;45460;-80
2023/11/07 01:48:52;;;;;;;;;5.67;5.67;;;;;;;;5082665;28;45330;-81
2023/11/07 01:51:18;;;;;;;;;3.00;3.00;;;;;;;;5082277;28;45555;-81
2023/11/07 01:53:43;;;;;;;;;5.67;5.67;;;;;;;;5082343;28;46022;-81
2023/11/07 01:56:09;;;;;;;;;4.00;4.00;;;;;;;;5082386;28;45317;-81
2023/11/07 01:58:34;;;;;;;;;6.33;5.33;;;;;;;;5082362;28;45269;-81
2023/11/07 02:01:00;;;;;;;;;3.33;3.33;;;;;;;;5082380;28;45488;-81
2023/11/07 02:03:26;;;;;;;;;6.33;5.00;;;;;;;;5082289;28;45537;-81
2023/11/07 02:05:51;;;;;;;;;3.00;3.00;;;;;;;;5082068;28;45337;-81
2023/11/07 02:08:17;;;;;;;;;5.00;5.00;;;;;;;;5082249;28;45378;-80
2023/11/07 02:10:42;;;;;;;;;3.33;3.33;;;;;;;;5082172;28;45576;-81
2023/11/07 02:13:07;;;;;;;;;3.00;3.00;;;;;;;;5081875;28;45305;-81
2023/11/07 02:15:35;;;;;;;;;3.33;3.33;;;;;;;;5082150;28;45341;-81
2023/11/07 02:18:00;;;;;;;;;4.00;4.00;;;;;;;;5082366;28;45338;-82
2023/11/07 02:20:26;;;;;;;;;4.00;4.00;;;;;;;;5081439;28;45353;-81
2023/11/07 02:22:59;;;;;;;;;4.00;4.00;;;;;;;;5081597;28;45626;-81
2023/11/07 02:25:24;;;;;;;;;4.00;4.00;;;;;;;;5082070;28;45268;-81
2023/11/07 02:27:50;;;;;;;;;4.67;4.67;;;;;;;;5082032;28;45315;-81
2023/11/07 02:30:15;;;;;;;;;3.00;3.00;;;;;;;;5098065;27;45330;-82
2023/11/07 02:32:40;;;;;;;;;4.33;4.00;;;;;;;;5102179;27;45473;-81
2023/11/07 02:35:06;;;;;;;;;3.67;3.67;;;;;;;;5102321;27;45318;-81
2023/11/07 02:37:31;;;;;;;;;3.33;3.00;;;;;;;;5102371;27;45431;-81
2023/11/07 02:39:56;;;;;;;;;4.00;4.00;;;;;;;;5102203;27;45345;-81
2023/11/07 02:42:22;;;;;;;;;4.00;4.00;;;;;;;;5102077;27;46261;-81
2023/11/07 02:44:48;;;;;;;;;5.00;3.00;;;;;;;;5102012;27;45444;-81
2023/11/07 02:47:13;;;;;;;;;4.00;4.00;;;;;;;;5101976;27;45386;-82
2023/11/07 02:49:38;;;;;;;;;4.00;4.00;;;;;;;;5102012;27;45552;-82
2023/11/07 02:52:03;;;;;;;;;4.00;4.00;;;;;;;;5101847;27;46523;-82
2023/11/07 02:54:29;;;;;;;;;4.67;4.00;;;;;;;;5100667;27;45305;-81
2023/11/07 02:56:55;;;;;;;;;4.33;4.00;;;;;;;;5102122;27;45226;-81
2023/11/07 02:59:21;;;;;;;;;4.00;4.00;;;;;;;;5101700;27;45508;-81
2023/11/07 03:01:49;;;;;;;;;7.67;7.00;;;;;;;;5101734;27;45970;-80
2023/11/07 03:04:14;;;;;;;;;10.67;10.00;;;;;;;;5101947;27;45294;-81
2023/11/07 03:06:40;;;;;;;;;6.67;6.67;;;;;;;;5100298;27;45360;-82
2023/11/07 03:09:05;;;;;;;;;7.00;7.00;;;;;;;;5101801;27;45259;-81
2023/11/07 03:11:31;;;;;;;;;10.00;9.00;;;;;;;;5101569;27;46500;-80
2023/11/07 03:13:56;;;;;;;;;5.00;5.00;;;;;;;;5101427;27;45420;-81
2023/11/07 03:16:21;;;;;;;;;6.33;6.00;;;;;;;;5101944;27;45255;-81
2023/11/07 03:18:46;;;;;;;;;9.33;6.00;;;;;;;;5101591;27;45325;-81
2023/11/07 03:21:12;;;;;;;;;7.00;7.00;;;;;;;;5101443;27;46347;-80
2023/11/07 03:23:37;;;;;;;;;5.33;5.00;;;;;;;;5101534;27;45375;-81
2023/11/07 03:26:04;;;;;;;;;4.33;4.33;;;;;;;;5101712;27;45278;-80
2023/11/07 03:28:29;;;;;;;;;7.33;5.67;;;;;;;;5099796;27;45282;-80
2023/11/07 03:30:54;;;;;;;;;5.00;4.00;;;;;;;;5079998;28;45323;-81
2023/11/07 03:33:20;;;;;;;;;3.67;3.00;;;;;;;;5080718;28;45315;-80
2023/11/07 03:35:46;;;;;;;;;2.67;2.67;;;;;;;;5080899;28;45453;-81
2023/11/07 03:38:12;;;;;;;;;4.67;4.00;;;;;;;;5080794;28;45390;-80
2023/11/07 03:40:37;;;;;;;;;4.33;4.00;;;;;;;;5080693;28;45237;-80
2023/11/07 03:43:02;;;;;;;;;3.00;3.00;;;;;;;;5080618;28;45318;-80
2023/11/07 03:45:28;;;;;;;;;3.00;3.00;;;;;;;;5081078;28;45293;-81
2023/11/07 03:47:53;;;;;;;;;2.33;2.33;;;;;;;;5079396;28;46121;-81
2023/11/07 03:50:19;;;;;;;;;2.33;2.33;;;;;;;;5080638;28;45242;-81
2023/11/07 03:52:45;;;;;;;;;2.00;2.00;;;;;;;;5080806;28;45282;-81
2023/11/07 03:55:10;;;;;;;;;2.00;2.00;;;;;;;;5081026;28;45354;-81
2023/11/07 03:57:35;;;;;;;;;3.67;3.67;;;;;;;;5081222;28;45424;-80
2023/11/07 04:00:00;;;;;;;;;3.00;3.00;;;;;;;;5080207;28;45244;-82
2023/11/07 04:02:25;;;;;;;;;2.00;1.33;;;;;;;;5080799;28;45270;-81
2023/11/07 04:04:50;;;;;;;;;1.00;1.00;;;;;;;;5079652;28;45359;-80
2023/11/07 04:07:16;;;;;;;;;3.00;2.33;;;;;;;;5078858;28;46075;-80
2023/11/07 04:09:43;;;;;;;;;3.67;2.67;;;;;;;;5080234;28;45606;-82
2023/11/07 04:12:08;;;;;;;;;4.00;3.00;;;;;;;;5080302;28;45357;-81
2023/11/07 04:14:33;;;;;;;;;3.67;3.67;;;;;;;;5080185;28;45523;-82
2023/11/07 04:16:59;;;;;;;;;2.00;2.00;;;;;;;;5080367;28;45480;-81
2023/11/07 04:19:24;;;;;;;;;1.33;1.00;;;;;;;;5080298;28;46094;-81
2023/11/07 04:21:50;;;;;;;;;1.67;1.00;;;;;;;;5081760;28;45310;-81
2023/11/07 04:24:16;;;;;;;;;4.33;2.00;;;;;;;;5080530;28;45316;-81
2023/11/07 04:26:41;;;;;;;;;3.67;3.67;;;;;;;;5081031;28;45679;-80
2023/11/07 04:29:06;;;;;;;;;3.33;2.00;;;;;;;;5089364;27;46033;-81
2023/11/07 04:31:33;;;;;;;;;3.00;3.00;;;;;;;;5102804;27;45305;-81
2023/11/07 04:33:58;;;;;;;;;5.00;3.00;;;;;;;;5103743;27;45516;-81
2023/11/07 04:36:23;;;;;;;;;4.00;2.00;;;;;;;;5103963;27;45289;-81
2023/11/07 04:38:49;;;;;;;;;5.33;4.00;;;;;;;;5101153;27;47565;-81
2023/11/07 04:41:15;;;;;;;;;3.33;3.33;;;;;;;;5100576;27;45318;-81
2023/11/07 04:43:40;;;;;;;;;2.00;2.00;;;;;;;;5100171;27;45326;-82
2023/11/07 04:46:06;;;;;;;;;2.00;2.00;;;;;;;;5100280;27;45450;-81
2023/11/07 04:48:32;;;;;;;;;3.00;3.00;;;;;;;;5099925;27;45266;-81
2023/11/07 04:50:57;;;;;;;;;1.33;1.33;;;;;;;;5100337;27;45339;-82
2023/11/07 04:53:23;;;;;;;;;3.00;1.67;;;;;;;;5100598;27;45287;-81
2023/11/07 04:55:49;;;;;;;;;1.67;1.67;;;;;;;;5100313;27;45347;-82
2023/11/07 04:58:14;;;;;;;;;3.00;3.00;;;;;;;;5101855;27;45676;-81
2023/11/07 05:00:40;;;;;;;;;4.00;4.00;;;;;;;;5100914;27;45289;-82
2023/11/07 05:03:05;;;;;;;;;4.00;2.00;;;;;;;;5103242;27;45247;-82
2023/11/07 05:05:31;;;;;;;;;2.00;2.00;;;;;;;;5102182;27;45350;-82
2023/11/07 05:07:56;;;;;;;;;2.67;2.33;;;;;;;;5101386;27;45296;-82
2023/11/07 05:10:22;;;;;;;;;3.00;2.00;;;;;;;;5102161;27;45381;-82
2023/11/07 05:12:47;;;;;;;;;4.00;3.00;;;;;;;;5102507;27;45386;-82
2023/11/07 05:15:12;;;;;;;;;4.67;3.00;;;;;;;;5101781;27;45307;-81
2023/11/07 05:17:38;;;;;;;;;4.00;3.00;;;;;;;;5104557;27;45377;-81
2023/11/07 05:20:10;;;;;;;;;4.33;4.00;;;;;;;;5101807;27;45277;-82
2023/11/07 05:22:36;;;;;;;;;4.00;4.00;;;;;;;;5102342;27;45332;-81
2023/11/07 05:25:01;;;;;;;;;7.33;6.33;;;;;;;;5100191;27;45374;-81
2023/11/07 05:27:27;;;;;;;;;2.33;2.33;;;;;;;;5100962;27;46000;-82
2023/11/07 05:29:52;;;;;;;;;4.00;3.00;;;;;;;;5087650;27;45369;-82
2023/11/07 05:32:18;;;;;;;;;5.67;5.00;;;;;;;;5079944;28;45603;-81
2023/11/07 05:34:43;;;;;;;;;4.67;4.67;;;;;;;;5080572;28;45326;-82
2023/11/07 05:37:08;;;;;;;;;3.00;3.00;;;;;;;;5081678;28;45472;-81
2023/11/07 05:39:34;;;;;;;;;3.00;3.00;;;;;;;;5079813;28;45257;-82
2023/11/07 05:42:00;;;;;;;;;2.33;2.33;;;;;;;;5080115;28;45143;-82
2023/11/07 05:44:25;;;;;;;;;4.67;4.67;;;;;;;;5080070;28;45493;-81
2023/11/07 05:46:51;;;;;;;;;2.67;2.67;;;;;;;;5079739;28;45238;-81
2023/11/07 05:49:16;;;;;;;;;2.33;2.33;;;;;;;;5080099;28;45333;-81
2023/11/07 05:51:41;;;;;;;;;4.67;4.00;;;;;;;;5080214;28;44672;-82
2023/11/07 05:54:09;;;;;;;;;3.33;3.00;;;;;;;;5081394;28;45300;-81
2023/11/07 05:56:35;;;;;;;;;4.67;3.00;;;;;;;;5084705;28;45988;-82
2023/11/07 05:59:01;;;;;;;;;3.33;3.33;;;;;;;;5086637;28;45326;-81
2023/11/07 06:01:26;;;;;;;;;4.00;4.00;;;;;;;;5089996;28;45306;-81
2023/11/07 06:03:52;;;;;;;;;4.33;4.33;;;;;;;;5086724;28;47536;-81
2023/11/07 06:06:17;;;;;;;;;3.00;3.00;;;;;;;;5089706;28;45405;-81
2023/11/07 06:08:42;;;;;;;;;4.00;4.00;;;;;;;;5090591;28;45606;-81
2023/11/07 06:11:07;;;;;;;;;5.00;3.33;;;;;;;;5088645;28;45300;-81
2023/11/07 06:13:32;;;;;;;;;4.67;3.33;;;;;;;;5083965;28;45516;-81
2023/11/07 06:15:57;;;;;;;;;5.00;4.00;;;;;;;;5083221;28;46205;-81
2023/11/07 06:18:24;;;;;;;;;3.67;3.67;;;;;;;;5082882;28;45335;-81
2023/11/07 06:20:49;;;;;;;;;3.67;3.67;;;;;;;;5081731;28;45326;-80
2023/11/07 06:23:15;;;;;;;;;1.33;1.00;;;;;;;;5080713;28;46396;-80
2023/11/07 06:25:40;;;;;;;;;7.00;6.00;;;;;;;;5081977;27;45895;-82
2023/11/07 06:28:05;;;;;;;;;5.00;5.00;;;;;;;;5081183;28;45327;-82
2023/11/07 06:30:30;;;;;;;;;5.33;5.33;;;;;;;;5081378;27;45247;-81
2023/11/07 06:32:56;;;;;;;;;7.00;6.00;;;;;;;;5082634;28;45355;-81
2023/11/07 06:35:21;;;;;;;;;6.00;4.67;;;;;;;;5083921;28;45375;-81
2023/11/07 06:37:47;;;;;;;;;5.00;5.00;;;;;;;;5084931;28;45300;-80
2023/11/07 06:40:16;;;;;;;;;6.33;5.67;;;;;;;;5084804;28;45263;-81
2023/11/07 06:42:43;;;;;;;;;8.00;7.00;;;;;;;;5082049;28;45440;-81
2023/11/07 06:45:11;;;;;;;;;5.33;5.33;;;;;;;;5081838;28;46613;-82
2023/11/07 06:47:37;;;;;;;;;5.00;5.00;;;;;;;;5081472;28;45231;-81
2023/11/07 06:50:02;;;;;;;;;4.33;4.33;;;;;;;;5084076;28;45598;-79
2023/11/07 06:52:27;;;;;;;;;4.00;4.00;;;;;;;;5081229;28;45244;-80
2023/11/07 06:54:53;;;;;;;;;6.00;6.00;;;;;;;;5081534;28;45911;-79
2023/11/07 06:57:18;;;;;;;;;5.00;4.00;;;;;;;;5081929;28;45443;-80
2023/11/07 06:59:43;;;;;;;;;6.33;5.33;;;;;;;;5082260;28;45421;-80
2023/11/07 07:02:09;;;;;;;;;6.67;5.67;;;;;;;;5080352;28;45497;-79
2023/11/07 07:04:34;;;;;;;;;5.33;5.33;;;;;;;;5081269;28;45923;-79
2023/11/07 07:06:59;;;;;;;;;5.67;5.00;;;;;;;;5079925;28;45431;-78
2023/11/07 07:09:26;;;;;;;;;5.33;5.33;;;;;;;;5081691;28;45241;-79
2023/11/07 07:11:51;;;;;;;;;9.00;7.33;;;;;;;;5081339;28;45481;-79
2023/11/07 07:14:16;;;;;;;;;4.00;4.00;;;;;;;;5080612;28;46105;-78
2023/11/07 07:16:41;;;;;;;;;7.33;7.00;;;;;;;;5081870;28;45279;-78
2023/11/07 07:19:07;;;;;;;;;7.00;6.67;;;;;;;;5081491;28;45364;-77
2023/11/07 07:21:34;;;;;;;;;12.67;10.00;;;;;;;;5081649;28;45370;-78
2023/11/07 07:23:59;;;;;;;;;7.33;7.33;;;;;;;;5070095;27;45326;-78
2023/11/07 07:26:26;;;;;;;;;8.33;7.33;;;;;;;;5064503;28;46129;-78
2023/11/07 07:28:52;;;;;;;;;5.00;5.00;;;;;;;;5069616;27;45241;-77
2023/11/07 07:31:19;;;;;;;;;9.00;9.00;;;;;;;;5079581;27;46118;-78
2023/11/07 07:33:44;;;;;;;;;8.00;6.00;;;;;;;;5074875;28;46273;-79
2023/11/07 07:36:14;;;;;;;;;8.67;7.67;;;;;;;;5067238;28;45528;-80
2023/11/07 07:38:40;;;;;;;;;6.67;6.67;;;;;;;;5071900;28;45485;-78
2023/11/07 07:41:05;;;;;;;;;8.00;6.67;;;;;;;;5077793;28;45389;-78
2023/11/07 07:43:31;;;;;;;;;8.00;7.00;;;;;;;;5064672;28;45591;-78
2023/11/07 07:45:56;;;;;;;;;8.33;6.33;;;;;;;;5079400;28;46014;-78
2023/11/07 07:48:22;;;;;;;;;7.33;7.33;;;;;;;;5080522;27;45405;-78
2023/11/07 07:50:48;;;;;;;;;5.00;5.00;;;;;;;;5085014;27;45342;-76
2023/11/07 07:53:16;;;;;;;;;3.67;3.67;;;;;;;;5086725;27;45885;-76
2023/11/07 07:55:43;;;;;;;;;8.67;7.00;;;;;;;;5086712;27;45296;-76
2023/11/07 07:58:09;;;;;;;;;7.00;7.00;;;;;;;;5090153;27;45495;-76
2023/11/07 08:00:37;;;;;;;;;3.00;3.00;;;;;;;;5091103;28;45334;-76
2023/11/07 08:03:06;;;;;;;;;6.67;6.67;;;;;;;;5086410;27;46077;-76
2023/11/07 08:05:31;;;;;;;;;6.00;4.00;;;;;;;;5087419;27;45302;-75
2023/11/07 08:07:56;;;;;;;;;6.67;6.67;;;;;;;;5085876;28;45405;-77
2023/11/07 08:10:22;;;;;;;;;7.00;6.33;;;;;;;;5085637;27;45444;-79
2023/11/07 08:12:49;;;;;;;;;5.00;4.67;;;;;;;;5077805;28;48351;-77
2023/11/07 08:15:14;;;;;;;;;7.00;7.00;;;;;;;;5078877;28;45428;-82
2023/11/07 08:17:40;;;;;;;;;7.00;7.00;;;;;;;;5074674;28;45532;-83
2023/11/07 08:20:14;;;;;;;;;6.33;4.00;;;;;;;;5065604;28;45468;-79
2023/11/07 08:22:40;;;;;;;;;8.33;6.33;;;;;;;;5067410;28;46269;-80
2023/11/07 08:25:05;;;;;;;;;7.33;7.00;;;;;;;;5068134;28;45379;-79
2023/11/07 08:27:31;;;;;;;;;6.67;6.00;;;;;;;;5064421;28;45323;-80
2023/11/07 08:29:56;;;;;;;;;5.00;5.00;;;;;;;;5068650;27;45530;-79
2023/11/07 08:32:22;;;;;;;;;7.33;7.33;;;;;;;;5061487;28;45426;-81
2023/11/07 08:34:47;;;;;;;;;6.00;5.00;;;;;;;;5058821;28;45284;-82
2023/11/07 08:37:12;;;;;;;;;8.67;7.33;;;;;;;;5063411;28;45254;-80
2023/11/07 08:39:40;;;;;;;;;5.00;5.00;;;;;;;;5065605;28;45305;-81
2023/11/07 08:42:05;;;;;;;;;6.67;6.67;;;;;;;;5061419;28;45480;-78
2023/11/07 08:44:30;;;;;;;;;6.00;6.00;;;;;;;;5060825;28;45302;-80
2023/11/07 08:46:55;;;;;;;;;5.67;5.67;;;;;;;;5058688;28;45375;-78
2023/11/07 08:49:21;;;;;;;;;8.00;7.67;;;;;;;;5058417;28;45503;-78
2023/11/07 08:51:51;;;;;;;;;8.67;8.00;;;;;;;;5057139;28;45343;-79
2023/11/07 08:54:18;;;;;;;;;6.33;5.33;;;;;;;;5058392;28;45320;-79
2023/11/07 08:56:43;;;;;;;;;6.67;6.67;;;;;;;;5071782;28;45362;-79
2023/11/07 08:59:08;;;;;;;;;9.00;9.00;;;;;;;;5078652;28;45338;-78
2023/11/07 09:01:34;;;;;;;;;8.33;7.67;;;;;;;;5078857;28;45802;-77
2023/11/07 09:03:59;;;;;;;;;7.00;5.67;;;;;;;;5079149;28;45295;-76
2023/11/07 09:06:24;;;;;;;;;7.00;7.00;;;;;;;;5079183;28;45306;-77
2023/11/07 09:08:50;;;;;;;;;7.33;5.67;;;;;;;;5077602;28;45516;-78
2023/11/07 09:11:15;;;;;;;;;5.00;5.00;;;;;;;;5078647;28;46154;-78
2023/11/07 09:13:40;;;;;;;;;7.33;5.67;;;;;;;;5078475;28;45404;-77
2023/11/07 09:16:08;;;;;;;;;6.67;6.33;;;;;;;;5079122;28;45495;-78
2023/11/07 09:18:34;;;;;;;;;5.33;5.33;;;;;;;;5078308;28;45215;-78
2023/11/07 09:20:59;;;;;;;;;5.00;5.00;;;;;;;;5076929;28;48330;-78
2023/11/07 09:23:25;;;;;;;;;4.67;4.00;;;;;;;;5077686;28;45283;-80
2023/11/07 09:25:51;;;;;;;;;6.00;6.00;;;;;;;;5078223;28;45446;-78
2023/11/07 09:28:16;;;;;;;;;6.33;5.33;;;;;;;;5077434;28;45374;-78
2023/11/07 09:30:41;;;;;;;;;8.00;6.67;;;;;;;;5081405;27;46820;-79
2023/11/07 09:33:06;;;;;;;;;6.33;6.33;;;;;;;;5072749;28;46043;-78
2023/11/07 09:35:32;;;;;;;;;9.00;9.00;;;;;;;;5071564;28;45589;-82
2023/11/07 09:37:58;;;;;;;;;6.67;6.67;;;;;;;;5071164;28;45374;-78
2023/11/07 09:40:25;;;;;;;;;8.00;7.33;;;;;;;;5069982;28;46071;-79
2023/11/07 09:42:50;;;;;;;;;7.33;6.33;;;;;;;;5063949;28;45734;-78
2023/11/07 09:45:17;;;;;;;;;6.67;6.00;;;;;;;;5061878;28;45680;-79
2023/11/07 09:47:48;;;;;;;;;6.00;6.00;;;;;;;;5064077;28;45364;-78
2023/11/07 09:50:18;;;;;;;;;6.00;6.00;;;;;;;;5070253;28;46113;-79
2023/11/07 09:52:45;;;;;;;;;6.00;6.00;;;;;;;;5060892;28;45355;-80
2023/11/07 09:55:12;;;;;;;;;5.33;5.33;;;;;;;;5061651;28;45375;-79
2023/11/07 09:57:40;;;;;;;;;4.33;3.33;;;;;;;;5061492;28;45287;-79
2023/11/07 10:00:09;;;;;;;;;8.00;6.67;;;;;;;;5066305;28;46548;-78
2023/11/07 10:02:34;;;;;;;;;6.67;5.33;;;;;;;;5071489;28;45385;-79
2023/11/07 10:05:00;;;;;;;;;6.00;5.00;;;;;;;;5070737;28;45149;-78
2023/11/07 10:07:25;;;;;;;;;6.00;6.00;;;;;;;;5072031;28;45377;-78
2023/11/07 10:09:50;;;;;;;;;7.67;6.67;;;;;;;;5072035;28;45331;-80
2023/11/07 10:12:16;;;;;;;;;6.33;6.33;;;;;;;;5074595;28;45234;-80
2023/11/07 10:14:41;;;;;;;;;8.00;5.67;;;;;;;;5071375;28;45970;-78
2023/11/07 10:17:07;;;;;;;;;7.00;5.33;;;;;;;;5069742;28;45295;-80
2023/11/07 10:19:32;;;;;;;;;9.00;9.00;;;;;;;;5071103;28;45268;-79
2023/11/07 10:22:02;;;;;;;;;7.00;5.00;;;;;;;;5067263;28;45240;-80
2023/11/07 10:24:41;;;;;;;;;6.00;5.00;;;;;;;;5070794;28;45481;-80
2023/11/07 10:27:06;;;;;;;;;7.00;7.00;;;;;;;;5070125;28;46333;-79
2023/11/07 10:29:34;;;;;;;;;7.67;6.00;;;;;;;;5075589;27;45384;-82
2023/11/07 10:32:04;;;;;;;;;4.33;4.33;;;;;;;;5069138;28;45406;-78
2023/11/07 10:34:30;;;;;;;;;5.00;5.00;;;;;;;;5070324;28;46570;-80
2023/11/07 10:36:56;;;;;;;;;6.67;5.33;;;;;;;;5065687;28;45366;-79
2023/11/07 10:39:23;;;;;;;;;4.00;4.00;;;;;;;;5059514;28;45345;-81
2023/11/07 10:41:48;;;;;;;;;8.33;5.67;;;;;;;;5060939;28;45444;-80
2023/11/07 10:44:24;;;;;;;;;7.00;7.00;;;;;;;;5060850;28;45313;-80
2023/11/07 10:46:50;;;;;;;;;6.33;6.33;;;;;;;;5060067;28;45412;-80
2023/11/07 10:49:16;;;;;;;;;5.67;5.00;;;;;;;;5061167;28;45357;-83
2023/11/07 10:51:42;;;;;;;;;5.00;5.00;;;;;;;;5064891;28;45330;-80
2023/11/07 10:54:07;;;;;;;;;7.00;7.00;;;;;;;;5061466;28;45434;-81
2023/11/07 10:56:34;;;;;;;;;4.67;4.00;;;;;;;;5061018;28;45354;-80
2023/11/07 10:59:01;;;;;;;;;6.33;5.67;;;;;;;;5065758;28;46424;-80
2023/11/07 11:01:27;;;;;;;;;4.00;4.00;;;;;;;;5071249;28;45302;-81
2023/11/07 11:03:53;;;;;;;;;7.67;6.67;;;;;;;;5081365;28;45511;-80
2023/11/07 11:06:23;;;;;;;;;4.00;4.00;;;;;;;;5061722;28;45418;-80
2023/11/07 11:08:50;;;;;;;;;8.67;6.00;;;;;;;;5058702;28;45441;-79
2023/11/07 11:11:16;;;;;;;;;4.67;3.67;;;;;;;;5060219;28;45657;-81
2023/11/07 11:13:41;;;;;;;;;6.00;4.00;;;;;;;;5060902;28;45231;-82
2023/11/07 11:16:07;;;;;;;;;5.00;4.33;;;;;;;;5059017;28;46008;-84
2023/11/07 11:18:46;;;;;;;;;4.33;4.33;;;;;;;;5060970;28;46268;-84
2023/11/07 11:21:16;;;;;;;;;5.33;4.33;;;;;;;;5061066;28;45381;-81
2023/11/07 11:24:00;;;;;;;;;7.00;6.00;;;;;;;;5061043;28;45256;-81
2023/11/07 11:26:32;;;;;;;;;4.00;3.00;;;;;;;;5060610;28;45436;-83
2023/11/07 11:28:57;;;;;;;;;6.67;4.33;;;;;;;;5072217;27;45816;-80
2023/11/07 11:31:24;;;;;;;;;5.00;3.67;;;;;;;;5102915;27;45282;-82
2023/11/07 11:34:09;;;;;;;;;5.33;4.33;;;;;;;;5101318;27;45247;-80
2023/11/07 11:36:36;;;;;;;;;5.00;5.00;;;;;;;;5101535;27;45329;-80
2023/11/07 11:39:22;;;;;;;;;6.33;4.33;;;;;;;;5101814;27;45981;-78
2023/11/07 11:41:55;;;;;;;;;4.00;4.00;;;;;;;;5099754;27;45231;-79
2023/11/07 11:44:22;;;;;;;;;5.00;5.00;;;;;;;;5101867;27;45248;-78
2023/11/07 11:46:47;;;;;;;;;4.00;4.00;;;;;;;;5101321;27;45274;-79
2023/11/07 11:49:16;;;;;;;;;4.00;4.00;;;;;;;;5105392;27;46250;-78
2023/11/07 11:51:42;;;;;;;;;3.00;2.67;;;;;;;;5101085;27;45338;-77
2023/11/07 11:54:08;;;;;;;;;2.00;1.33;;;;;;;;5100884;27;45418;-78
2023/11/07 11:56:34;;;;;;;;;5.67;4.33;;;;;;;;5101697;27;45290;-78
2023/11/07 11:59:00;;;;;;;;;5.33;5.33;;;;;;;;5102854;27;45625;-80
2023/11/07 12:01:26;;;;;;;;;2.67;2.67;;;;;;;;5101668;27;45317;-79
2023/11/07 12:03:52;;;;;;;;;0.67;0.67;;;;;;;;5101876;27;45292;-78
2023/11/07 12:06:19;;;;;;;;;4.00;3.00;;;;;;;;5102601;27;45219;-78
2023/11/07 12:08:46;;;;;;;;;3.00;2.00;;;;;;;;5102147;27;45426;-80
2023/11/07 12:11:11;;;;;;;;;43.50;37.25;;;;;;;;5104007;27;45344;-77
2023/11/07 12:13:37;;;;;;;;;3.33;2.67;;;;;;;;5102294;27;45519;-78
2023/11/07 12:16:15;;;;;;;;;2.67;2.67;;;;;;;;5104613;27;45416;-78
2023/11/07 12:18:41;;;;;;;;;1.67;1.67;;;;;;;;5105086;27;45282;-79
2023/11/07 12:21:06;;;;;;;;;2.00;2.00;;;;;;;;5104411;27;45223;-79
2023/11/07 12:23:32;;;;;;;;;1.67;1.33;;;;;;;;5080203;27;45508;-79
2023/11/07 12:25:57;;;;;;;;;2.67;2.67;;;;;;;;5067604;28;45438;-78
2023/11/07 12:28:22;;;;;;;;;3.67;3.67;;;;;;;;5064341;28;46529;-78
2023/11/07 12:30:54;;;;;;;;;7.00;5.67;;;;;;;;5061873;28;45286;-80
2023/11/07 12:33:19;;;;;;;;;4.00;2.33;;;;;;;;5064772;28;45268;-79
2023/11/07 12:35:45;;;;;;;;;2.67;1.67;;;;;;;;5064347;28;45254;-77
2023/11/07 12:38:11;;;;;;;;;4.67;3.67;;;;;;;;5062202;28;46272;-80
2023/11/07 12:40:38;;;;;;;;;3.33;3.33;;;;;;;;5068358;28;45323;-79
2023/11/07 12:43:06;;;;;;;;;3.00;2.33;;;;;;;;5069600;28;45334;-77
2023/11/07 12:45:34;;;;;;;;;4.33;4.00;;;;;;;;5071727;28;45397;-80
2023/11/07 12:48:06;;;;;;;;;3.67;3.67;;;;;;;;5066615;28;46842;-79
2023/11/07 12:50:33;;;;;;;;;3.67;3.67;;;;;;;;5069887;27;45310;-79
2023/11/07 12:53:00;;;;;;;;;4.33;4.33;;;;;;;;5071076;28;45381;-78
2023/11/07 12:55:30;;;;;;;;;3.00;2.33;;;;;;;;5068604;28;46295;-79
2023/11/07 12:58:00;;;;;;;;;2.33;2.33;;;;;;;;5066494;28;47734;-80
2023/11/07 13:00:26;;;;;;;;;1.67;1.33;;;;;;;;5066728;28;46086;-77
2023/11/07 13:02:57;;;;;;;;;2.00;2.00;;;;;;;;5076201;28;45299;-79
2023/11/07 13:05:24;;;;;;;;;1.33;1.33;;;;;;;;5070370;28;45819;-79
2023/11/07 13:07:49;;;;;;;;;1.67;1.67;;;;;;;;5062722;28;46868;-80
2023/11/07 13:10:15;;;;;;;;;2.00;2.00;;;;;;;;5081200;28;45326;-82
2023/11/07 13:12:44;;;;;;;;;3.00;0.33;;;;;;;;5081458;28;45364;-80
2023/11/07 13:15:09;;;;;;;;;2.67;1.00;;;;;;;;5081624;27;45441;-80
2023/11/07 13:17:38;;;;;;;;;3.67;1.67;;;;;;;;5077398;28;46130;-80
2023/11/07 13:20:11;;;;;;;;;0.00;0.00;;;;;;;;5080037;28;45641;-80
2023/11/07 13:22:36;;;;;;;;;0.00;0.00;;;;;;;;5080553;28;45398;-78
2023/11/07 13:25:09;;;;;;;;;1.33;1.00;;;;;;;;5082144;28;46954;-81
2023/11/07 13:27:37;;;;;;;;;0.00;0.00;;;;;;;;5080742;28;47447;-81
2023/11/07 13:30:07;;;;;;;;;4.33;3.00;;;;;;;;5096000;27;45440;-82
2023/11/07 13:32:32;;;;;;;;;1.00;1.00;;;;;;;;5103804;27;45332;-80
2023/11/07 13:34:58;;;;;;;;;0.00;0.00;;;;;;;;5103509;27;45321;-81
2023/11/07 13:37:24;;;;;;;;;4.00;2.67;;;;;;;;5106225;27;47422;-84
2023/11/07 13:39:49;;;;;;;;;0.00;0.00;;;;;;;;5105143;27;45553;-79
2023/11/07 13:42:14;;;;;;;;;0.00;0.00;;;;;;;;5070455;27;45555;-80
2023/11/07 13:44:39;;;;;;;;;1.25;1.25;;;;;;;;5063036;28;47057;-81
2023/11/07 13:47:05;;;;;;;;;0.00;0.00;;;;;;;;5080242;28;45437;-83
2023/11/07 13:49:30;;;;;;;;;2.00;1.00;;;;;;;;5082716;28;45847;-82
2023/11/07 13:51:56;;;;;;;;;0.75;0.75;;;;;;;;5082876;28;45437;-80
2023/11/07 13:54:22;;;;;;;;;3.00;1.25;;;;;;;;5081835;28;45415;-80
2023/11/07 13:56:48;;;;;;;;;0.00;0.00;;;;;;;;5075915;28;45969;-81
2023/11/07 13:59:13;;;;;;;;;0.00;0.00;;;;;;;;5077011;28;45645;-83
2023/11/07 14:01:38;;;;;;;;;0.50;0.00;;;;;;;;5071155;28;45733;-79
2023/11/07 14:04:04;;;;;;;;;0.00;0.00;;;;;;;;5069214;28;45537;-82
2023/11/07 14:06:29;;;;;;;;;0.00;0.00;;;;;;;;5061847;28;45346;-80
2023/11/07 14:08:55;;;;;;;;;0.00;0.00;;;;;;;;5063050;28;45319;-80
2023/11/07 14:11:20;;;;;;;;;0.33;0.00;;;;;;;;5059707;28;45336;-80
2023/11/07 14:13:50;;;;;;;;;0.00;0.00;;;;;;;;5060939;28;45395;-82
2023/11/07 14:16:15;;;;;;;;;4.00;3.00;;;;;;;;5060137;28;47153;-81
2023/11/07 14:18:41;;;;;;;;;0.00;0.00;;;;;;;;5064654;28;45390;-82
2023/11/07 14:21:06;;;;;;;;;2.00;0.33;;;;;;;;5078047;28;45444;-84
2023/11/07 14:23:33;;;;;;;;;0.67;0.67;;;;;;;;5081271;28;45512;-82
2023/11/07 14:25:58;;;;;;;;;2.50;0.00;;;;;;;;5072699;28;45427;-79
2023/11/07 14:28:24;;;;;;;;;0.67;0.67;;;;;;;;5072493;27;45401;-82
2023/11/07 14:30:49;;;;;;;;;1.00;1.00;;;;;;;;5070369;28;45286;-80
2023/11/07 14:33:16;;;;;;;;;2.00;2.00;;;;;;;;5075387;28;45336;-80
2023/11/07 14:35:41;;;;;;;;;1.75;1.00;;;;;;;;5077486;28;46797;-81
2023/11/07 14:38:07;;;;;;;;;0.00;0.00;;;;;;;;5069444;28;45378;-82